Time;durP1;ratioP1;P1;durP2;ratioP2;P2;SDS_P1;SDS_P2;PMS_P1;PMS_P2;Temp;Humidity;BMP_temperature;BMP_pressure;BME280_temperature;BME280_humidity;BME280_pressure;Samples;Min_cycle;Max_cycle;Signal;HPM_P1;HPM_P2
2023/11/20 00:01:46;;;;;;;3.42;2.38;;;;;;;5.30;46.30;94898.19;4852696;29;20034;-73
2023/11/20 00:04:12;;;;;;;2.47;1.77;;;;;;;5.35;46.19;94888.03;4835977;29;20493;-75
2023/11/20 00:06:37;;;;;;;3.78;2.28;;;;;;;5.33;46.39;94885.69;4853712;29;20041;-75
2023/11/20 00:09:02;;;;;;;4.25;2.28;;;;;;;5.40;46.61;94896.56;4852872;29;20089;-73
2023/11/20 00:11:28;;;;;;;4.57;2.38;;;;;;;5.42;46.51;94905.09;4852359;29;20041;-75
2023/11/20 00:13:53;;;;;;;5.50;2.55;;;;;;;5.48;46.69;94895.28;4851326;29;20056;-74
2023/11/20 00:16:19;;;;;;;2.30;1.98;;;;;;;5.44;46.65;94912.84;4845008;29;20033;-75
2023/11/20 00:18:44;;;;;;;3.67;2.45;;;;;;;5.47;46.58;94910.09;4854739;29;20029;-75
2023/11/20 00:21:09;;;;;;;3.78;2.22;;;;;;;5.48;46.15;94899.97;4871919;29;20037;-74
2023/11/20 00:23:35;;;;;;;5.47;2.85;;;;;;;5.31;46.28;94882.59;4870124;29;20535;-74
2023/11/20 00:26:00;;;;;;;5.78;2.60;;;;;;;5.44;46.11;94921.03;4863446;29;20036;-74
2023/11/20 00:28:26;;;;;;;4.78;2.30;;;;;;;5.45;46.12;94928.84;4856821;29;20044;-74
2023/11/20 00:30:51;;;;;;;3.28;2.05;;;;;;;5.47;46.06;94925.69;4872839;29;20073;-75
2023/11/20 00:33:17;;;;;;;4.35;2.95;;;;;;;5.47;45.90;94936.59;4855748;29;20033;-74
2023/11/20 00:35:42;;;;;;;3.97;2.00;;;;;;;5.47;45.99;94940.09;4870563;29;20108;-75
2023/11/20 00:38:08;;;;;;;5.75;2.90;;;;;;;5.49;46.60;94948.63;4857010;29;20512;-75
2023/11/20 00:40:33;;;;;;;5.60;3.22;;;;;;;5.49;46.89;94945.13;4857538;29;20100;-76
2023/11/20 00:42:59;;;;;;;8.15;3.55;;;;;;;5.49;47.85;94939.69;4844523;29;20025;-74
2023/11/20 00:45:24;;;;;;;6.53;3.60;;;;;;;5.45;47.95;94937.00;4869464;29;20572;-74
2023/11/20 00:47:50;;;;;;;5.78;3.50;;;;;;;5.47;47.80;94942.06;4856521;29;20033;-75
2023/11/20 00:50:15;;;;;;;5.75;3.58;;;;;;;5.47;47.90;94942.06;4869359;29;20045;-74
2023/11/20 00:52:41;;;;;;;4.85;2.97;;;;;;;5.53;47.80;94934.97;4870827;29;20033;-74
2023/11/20 00:55:10;;;;;;;6.00;3.20;;;;;;;5.42;47.88;94924.16;4856931;29;20101;-73
2023/11/20 00:57:39;;;;;;;4.35;2.72;;;;;;;5.41;47.90;94919.13;4864913;29;20045;-74
2023/11/20 01:00:11;;;;;;;4.97;3.17;;;;;;;5.41;47.34;94911.72;4838371;29;20521;-75
2023/11/20 01:02:38;;;;;;;4.32;2.13;;;;;;;5.47;46.18;94890.25;4868861;29;20049;-74
2023/11/20 01:05:03;;;;;;;3.38;2.00;;;;;;;5.54;45.10;94869.13;4840423;29;20058;-75
2023/11/20 01:07:29;;;;;;;3.50;1.90;;;;;;;5.67;44.29;94876.78;4844389;29;20124;-75
2023/11/20 01:09:54;;;;;;;2.45;1.48;;;;;;;5.72;44.35;94887.25;4856905;29;20025;-75
2023/11/20 01:12:19;;;;;;;3.38;1.60;;;;;;;5.70;44.38;94893.13;4837158;29;20069;-74
2023/11/20 01:14:45;;;;;;;2.45;1.63;;;;;;;5.78;44.54;94897.31;4862644;29;20660;-74
2023/11/20 01:17:11;;;;;;;2.75;1.33;;;;;;;5.76;44.56;94901.63;4853057;29;20457;-74
2023/11/20 01:19:36;;;;;;;5.90;1.75;;;;;;;5.77;44.69;94897.72;4863556;29;20040;-74
2023/11/20 01:22:01;;;;;;;2.72;1.67;;;;;;;5.79;44.81;94898.06;4873181;29;20464;-74
2023/11/20 01:24:27;;;;;;;3.05;1.70;;;;;;;5.78;44.64;94891.84;4857966;29;20085;-74
2023/11/20 01:26:53;;;;;;;4.78;2.28;;;;;;;5.83;44.87;94887.91;4867913;29;20033;-74
2023/11/20 01:29:19;;;;;;;4.30;2.03;;;;;;;5.92;45.05;94892.91;4868330;29;20033;-73
2023/11/20 01:31:45;;;;;;;2.60;1.60;;;;;;;6.01;44.55;94893.19;4859091;29;20443;-74
2023/11/20 01:34:11;;;;;;;3.75;2.20;;;;;;;6.03;44.72;94910.72;4850342;29;20033;-74
2023/11/20 01:36:37;;;;;;;5.53;1.92;;;;;;;6.05;44.68;94904.84;4868707;29;20120;-74
2023/11/20 01:39:03;;;;;;;3.95;2.17;;;;;;;6.09;44.25;94906.34;4855718;29;20048;-74
2023/11/20 01:41:29;;;;;;;5.32;2.22;;;;;;;6.03;44.62;94902.53;4869070;29;20025;-74
2023/11/20 01:43:54;;;;;;;4.15;1.73;;;;;;;6.06;44.52;94920.81;4867756;29;20120;-74
2023/11/20 01:46:20;;;;;;;4.78;1.85;;;;;;;6.03;44.71;94918.13;4865885;29;20116;-74
2023/11/20 01:48:45;;;;;;;7.28;2.72;;;;;;;6.01;44.66;94917.75;4868258;29;20040;-75
2023/11/20 01:51:11;;;;;;;4.47;1.65;;;;;;;6.03;44.48;94918.91;4867735;29;20055;-73
2023/11/20 01:53:38;;;;;;;4.55;2.20;;;;;;;6.09;44.50;94906.34;4883685;29;20152;-74
2023/11/20 01:56:03;;;;;;;2.38;1.50;;;;;;;6.08;44.28;94904.81;4872004;29;20049;-74
2023/11/20 01:58:30;;;;;;;3.30;1.52;;;;;;;6.07;43.90;94897.00;4867555;29;20033;-74
2023/11/20 02:00:55;;;;;;;2.38;1.88;;;;;;;6.05;43.85;94888.47;4852269;29;20033;-74
2023/11/20 02:03:20;;;;;;;4.40;2.15;;;;;;;6.01;43.87;94891.22;4867324;29;20074;-74
2023/11/20 02:05:46;;;;;;;3.15;1.80;;;;;;;5.99;43.97;94888.16;4842946;29;20643;-74
2023/11/20 02:08:13;;;;;;;3.75;1.90;;;;;;;6.07;43.75;94895.06;4854849;29;20489;-73
2023/11/20 02:10:39;;;;;;;3.90;1.75;;;;;;;6.00;43.90;94900.59;4855302;29;20116;-74
2023/11/20 02:13:06;;;;;;;3.92;1.25;;;;;;;6.04;43.83;94893.16;4869496;29;20484;-74
2023/11/20 02:15:31;;;;;;;4.88;1.80;;;;;;;6.00;43.77;94891.66;4855344;29;20180;-73
2023/11/20 02:17:57;;;;;;;5.57;2.00;;;;;;;5.95;44.12;94895.59;4829371;29;20044;-74
2023/11/20 02:20:23;;;;;;;4.05;2.17;;;;;;;5.93;44.23;94884.31;4853363;29;20420;-75
2023/11/20 02:22:49;;;;;;;4.28;2.00;;;;;;;5.95;44.37;94892.09;4854710;29;20037;-76
2023/11/20 02:25:16;;;;;;;3.90;2.10;;;;;;;5.92;44.46;94882.00;4851287;29;20037;-74
2023/11/20 02:28:03;;;;;;;4.40;2.17;;;;;;;5.92;44.50;94892.91;4877621;29;20036;-75
2023/11/20 02:30:30;;;;;;;4.13;1.65;;;;;;;5.91;44.62;94886.69;4853146;29;20040;-74
2023/11/20 02:32:55;;;;;;;5.80;2.40;;;;;;;5.97;44.56;94887.00;4866998;29;20040;-74
2023/11/20 02:35:22;;;;;;;3.75;2.20;;;;;;;5.92;44.73;94885.50;4837349;29;20789;-74
2023/11/20 02:37:47;;;;;;;4.90;2.70;;;;;;;5.90;45.08;94896.00;4836385;29;20529;-74
2023/11/20 02:40:12;;;;;;;7.95;3.78;;;;;;;5.82;45.66;94900.78;4852798;29;20070;-74
2023/11/20 02:42:38;;;;;;;6.63;3.08;;;;;;;5.77;45.92;94903.94;4852580;29;20033;-74
2023/11/20 02:45:04;;;;;;;6.93;3.50;;;;;;;5.67;46.41;94906.78;4866757;29;20037;-73
2023/11/20 02:47:29;;;;;;;6.53;4.10;;;;;;;5.59;46.79;94908.81;4866212;29;20045;-74
2023/11/20 02:49:54;;;;;;;6.30;3.40;;;;;;;5.53;46.77;94905.75;4853477;29;20075;-74
2023/11/20 02:52:20;;;;;;;8.80;4.03;;;;;;;5.48;46.63;94903.47;4870551;29;20037;-75
2023/11/20 02:54:46;;;;;;;6.70;4.15;;;;;;;5.43;46.76;94895.72;4828118;29;1283959;-74
2023/11/20 02:57:11;;;;;;;5.93;3.08;;;;;;;5.37;46.97;94897.34;4863623;29;20420;-74
2023/11/20 02:59:37;;;;;;;5.65;3.20;;;;;;;5.36;47.08;94895.81;4836539;29;20416;-75
2023/11/20 03:02:02;;;;;;;6.78;3.03;;;;;;;5.38;47.14;94907.06;4836395;29;20341;-74
2023/11/20 03:04:27;;;;;;;6.95;2.85;;;;;;;5.40;47.10;94901.22;4866611;29;20036;-75
2023/11/20 03:06:53;;;;;;;5.28;2.78;;;;;;;5.36;47.07;94903.22;4867335;29;20040;-74
2023/11/20 03:09:19;;;;;;;4.93;2.90;;;;;;;5.29;47.01;94899.38;4866557;29;20037;-75
2023/11/20 03:11:45;;;;;;;3.58;2.45;;;;;;;5.26;47.41;94892.00;4874589;29;20042;-74
2023/11/20 03:14:11;;;;;;;4.57;2.30;;;;;;;5.22;47.20;94880.38;4853663;29;20562;-73
2023/11/20 03:16:38;;;;;;;5.97;2.35;;;;;;;5.28;47.25;94883.44;4839518;29;20096;-75
2023/11/20 03:19:05;;;;;;;5.75;2.40;;;;;;;5.28;47.24;94870.56;4867052;29;20420;-75
2023/11/20 03:21:33;;;;;;;5.40;2.42;;;;;;;5.29;47.30;94865.88;4866507;29;20033;-74
2023/11/20 03:23:59;;;;;;;4.25;1.95;;;;;;;5.32;47.19;94854.16;4836388;29;20492;-75
2023/11/20 03:26:26;;;;;;;4.30;2.10;;;;;;;5.30;47.37;94849.13;4843316;29;20033;-74
2023/11/20 03:28:52;;;;;;;3.22;1.67;;;;;;;5.32;47.51;94845.97;4855134;29;20033;-74
2023/11/20 03:31:17;;;;;;;3.38;2.05;;;;;;;5.31;47.46;94847.94;4854124;29;20120;-75
2023/11/20 03:33:46;;;;;;;6.15;2.40;;;;;;;5.36;47.44;94854.91;4846726;29;20116;-74
2023/11/20 03:36:14;;;;;;;3.28;2.42;;;;;;;5.38;48.08;94846.31;4852851;29;20112;-74
2023/11/20 03:38:41;;;;;;;6.30;3.53;;;;;;;5.29;48.77;94833.19;4866755;29;20049;-74
2023/11/20 03:41:06;;;;;;;6.07;2.95;;;;;;;5.26;49.24;94842.94;4851000;29;20083;-73
2023/11/20 03:43:32;;;;;;;5.50;3.28;;;;;;;5.21;49.02;94848.81;4866584;29;20046;-74
2023/11/20 03:45:57;;;;;;;7.15;3.22;;;;;;;5.21;48.64;94848.03;4836565;29;20075;-74
2023/11/20 03:48:22;;;;;;;8.98;3.92;;;;;;;5.15;49.19;94844.97;4866439;29;20025;-73
2023/11/20 03:50:48;;;;;;;7.72;3.50;;;;;;;5.13;49.08;94852.03;4867596;29;20033;-74
2023/11/20 03:53:14;;;;;;;6.47;3.75;;;;;;;5.03;49.15;94842.75;4839784;29;20038;-75
2023/11/20 03:55:39;;;;;;;6.65;3.72;;;;;;;4.99;49.07;94847.47;4868938;29;20057;-73
2023/11/20 03:58:05;;;;;;;8.50;3.47;;;;;;;4.96;49.14;94840.88;4869881;29;20038;-73
2023/11/20 04:00:30;;;;;;;9.93;3.67;;;;;;;4.95;49.16;94833.13;4856484;29;20058;-74
2023/11/20 04:02:58;;;;;;;6.65;4.07;;;;;;;4.90;49.07;94830.81;4858577;29;20029;-74
2023/11/20 04:05:23;;;;;;;8.52;4.13;;;;;;;4.85;49.64;94821.13;4863876;29;20068;-74
2023/11/20 04:07:49;;;;;;;7.43;4.22;;;;;;;4.88;49.36;94833.94;4858249;29;20124;-73
2023/11/20 04:10:14;;;;;;;7.22;4.70;;;;;;;4.83;49.19;94839.81;4839632;29;20056;-73
2023/11/20 04:12:39;;;;;;;10.65;4.68;;;;;;;4.79;49.38;94837.13;4856711;29;20029;-75
2023/11/20 04:15:05;;;;;;;9.30;4.22;;;;;;;4.78;49.28;94845.69;4855963;29;20032;-75
2023/11/20 04:17:33;;;;;;;10.13;4.78;;;;;;;4.77;49.28;94838.72;4855986;29;20038;-75
2023/11/20 04:19:58;;;;;;;15.20;7.10;;;;;;;4.77;49.15;94836.75;4857318;29;20045;-75
2023/11/20 04:22:24;;;;;;;12.68;6.40;;;;;;;4.72;49.40;94823.56;4856068;29;20100;-74
2023/11/20 04:24:49;;;;;;;10.63;5.13;;;;;;;4.70;49.51;94831.38;4855886;29;20033;-74
2023/11/20 04:27:15;;;;;;;8.60;4.45;;;;;;;4.69;49.33;94834.47;4856875;29;20045;-74
2023/11/20 04:29:40;;;;;;;7.65;3.67;;;;;;;4.67;49.45;94845.00;4866089;29;20075;-74
2023/11/20 04:32:06;;;;;;;5.53;3.15;;;;;;;4.62;49.48;94850.88;4855586;29;20563;-74
2023/11/20 04:34:31;;;;;;;6.00;3.50;;;;;;;4.54;49.70;94855.63;4839189;29;20038;-75
2023/11/20 04:36:57;;;;;;;8.32;4.25;;;;;;;4.53;49.91;94857.56;4855691;29;20028;-75
2023/11/20 04:39:22;;;;;;;11.48;5.95;;;;;;;4.50;49.78;94850.19;4869448;29;20064;-74
2023/11/20 04:41:48;;;;;;;17.77;7.63;;;;;;;4.45;50.07;94853.31;4855721;29;20042;-74
2023/11/20 04:44:13;;;;;;;15.65;8.20;;;;;;;4.40;50.07;94853.75;4853665;29;20127;-74
2023/11/20 04:46:41;;;;;;;15.63;8.57;;;;;;;4.39;50.01;94859.59;4840508;29;20041;-75
2023/11/20 04:49:06;;;;;;;13.02;6.78;;;;;;;4.38;50.11;94858.03;4872220;29;20063;-75
2023/11/20 04:51:31;;;;;;;10.15;5.75;;;;;;;4.35;50.05;94861.56;4868245;29;20060;-74
2023/11/20 04:53:57;;;;;;;9.00;5.95;;;;;;;4.22;50.19;94848.41;4863729;29;20025;-74
2023/11/20 04:56:23;;;;;;;7.65;4.88;;;;;;;4.33;50.21;94861.19;4861824;29;20080;-72
2023/11/20 04:58:48;;;;;;;9.35;4.72;;;;;;;4.37;50.48;94861.94;4850986;29;20138;-74
2023/11/20 05:01:13;;;;;;;12.30;5.30;;;;;;;4.39;50.24;94873.97;4851386;29;20070;-74
2023/11/20 05:03:39;;;;;;;11.65;5.43;;;;;;;4.27;50.44;94871.72;4867197;29;20087;-75
2023/11/20 05:06:08;;;;;;;11.57;4.80;;;;;;;4.18;50.72;94876.81;4856604;29;20037;-74
2023/11/20 05:08:33;;;;;;;12.23;5.15;;;;;;;4.19;50.99;94878.38;4857247;29;20112;-74
2023/11/20 05:10:59;;;;;;;12.50;5.75;;;;;;;4.21;51.07;94884.97;4868933;29;20120;-74
2023/11/20 05:13:25;;;;;;;14.07;5.85;;;;;;;4.26;51.22;94883.78;4851165;29;20029;-74
2023/11/20 05:15:51;;;;;;;9.68;5.70;;;;;;;4.29;51.36;94885.69;4866575;29;20033;-73
2023/11/20 05:18:16;;;;;;;14.98;5.82;;;;;;;4.32;51.40;94882.19;4840807;29;20423;-74
2023/11/20 05:20:42;;;;;;;19.00;6.53;;;;;;;4.33;51.70;94886.47;4856768;29;20081;-75
2023/11/20 05:23:08;;;;;;;10.48;5.32;;;;;;;4.34;51.66;94887.22;4840853;29;20116;-75
2023/11/20 05:25:35;;;;;;;13.60;5.97;;;;;;;4.39;51.93;94871.25;4842411;29;20049;-75
2023/11/20 05:28:00;;;;;;;11.88;6.20;;;;;;;4.32;51.89;94856.91;4859304;29;20043;-75
2023/11/20 05:30:26;;;;;;;12.55;5.68;;;;;;;4.45;51.84;94861.50;4864416;29;20036;-74
2023/11/20 05:32:51;;;;;;;18.20;6.13;;;;;;;4.52;51.75;94877.00;4855601;29;20029;-73
2023/11/20 05:35:17;;;;;;;16.95;6.55;;;;;;;4.53;52.18;94873.13;4839100;29;20044;-75
2023/11/20 05:37:42;;;;;;;12.98;7.60;;;;;;;4.53;52.37;94870.41;4862610;29;20042;-75
2023/11/20 05:40:09;;;;;;;12.57;6.68;;;;;;;4.65;52.14;94866.44;4868423;29;20029;-74
2023/11/20 05:42:34;;;;;;;11.40;5.72;;;;;;;4.64;52.12;94873.03;4854591;29;20039;-74
2023/11/20 05:45:00;;;;;;;14.70;6.90;;;;;;;4.63;52.33;94874.97;4868546;29;20604;-73
2023/11/20 05:47:25;;;;;;;13.20;6.75;;;;;;;4.67;52.50;94883.13;4852439;29;20504;-73
2023/11/20 05:49:51;;;;;;;12.63;6.80;;;;;;;4.71;52.37;94897.50;4854415;29;20029;-74
2023/11/20 05:52:17;;;;;;;13.75;7.05;;;;;;;4.73;52.18;94892.44;4868403;29;20025;-76
2023/11/20 05:54:43;;;;;;;15.57;8.30;;;;;;;4.77;52.47;94887.75;4867584;29;20034;-75
2023/11/20 05:57:09;;;;;;;13.77;8.32;;;;;;;4.79;52.37;94894.31;4855409;29;20526;-75
2023/11/20 05:59:34;;;;;;;19.08;10.02;;;;;;;4.84;52.35;94873.28;4867918;29;20133;-74
2023/11/20 06:02:00;;;;;;;22.05;11.73;;;;;;;5.03;51.92;94884.41;4874673;29;20354;-75
2023/11/20 06:04:26;;;;;;;22.55;11.13;;;;;;;5.05;51.74;94879.34;4868567;29;20025;-76
2023/11/20 06:06:53;;;;;;;15.15;8.10;;;;;;;5.11;51.52;94893.31;4867508;29;20045;-74
2023/11/20 06:09:19;;;;;;;20.67;7.05;;;;;;;5.13;51.68;94892.91;4869393;29;20027;-74
2023/11/20 06:11:49;;;;;;;9.15;5.15;;;;;;;5.22;51.44;94894.00;4870488;29;20041;-75
2023/11/20 06:14:17;;;;;;;10.65;5.28;;;;;;;5.30;51.32;94879.09;4833418;29;20030;-76
2023/11/20 06:16:43;;;;;;;9.23;5.35;;;;;;;5.35;51.15;94868.94;4850041;29;20054;-74
2023/11/20 06:19:08;;;;;;;9.00;4.38;;;;;;;5.38;50.93;94874.34;4867208;29;20025;-74
2023/11/20 06:21:34;;;;;;;9.30;4.30;;;;;;;5.44;51.02;94878.19;4868135;29;20044;-73
2023/11/20 06:24:00;;;;;;;8.07;4.40;;;;;;;5.47;50.67;94879.34;4864368;29;20033;-75
2023/11/20 06:26:26;;;;;;;7.38;3.67;;;;;;;5.53;50.70;94880.44;4855331;29;20025;-74
2023/11/20 06:28:51;;;;;;;7.47;3.38;;;;;;;5.55;50.64;94889.00;4870246;29;20041;-75
2023/11/20 06:31:17;;;;;;;7.32;3.63;;;;;;;5.58;50.55;94893.66;4852571;29;20056;-75
2023/11/20 06:33:42;;;;;;;10.93;5.00;;;;;;;5.62;50.63;94894.38;4867470;29;20040;-74
2023/11/20 06:36:08;;;;;;;13.80;5.93;;;;;;;5.70;50.39;94895.06;4864970;29;20382;-74
2023/11/20 06:38:35;;;;;;;20.40;8.35;;;;;;;5.73;50.36;94889.56;4855605;29;20069;-74
2023/11/20 06:41:02;;;;;;;15.82;8.48;;;;;;;5.69;50.13;94907.94;4849438;29;20022;-74
2023/11/20 06:43:28;;;;;;;13.68;7.53;;;;;;;5.79;49.76;94898.88;4837648;29;20145;-74
2023/11/20 06:45:53;;;;;;;14.73;6.50;;;;;;;5.92;48.96;94904.59;4836780;29;20093;-73
2023/11/20 06:48:19;;;;;;;10.38;5.72;;;;;;;5.92;48.66;94896.41;4855787;29;20065;-75
2023/11/20 06:50:44;;;;;;;12.07;5.18;;;;;;;5.91;48.74;94894.88;4866457;29;20088;-75
2023/11/20 06:53:10;;;;;;;12.35;4.40;;;;;;;5.93;48.47;94889.78;4862935;29;20024;-75
2023/11/20 06:55:36;;;;;;;6.95;3.45;;;;;;;6.08;48.02;94890.41;4872319;29;20056;-75
2023/11/20 06:58:01;;;;;;;7.00;3.72;;;;;;;6.10;47.95;94901.66;4855020;29;20724;-75
2023/11/20 07:00:27;;;;;;;9.02;4.32;;;;;;;6.13;47.93;94896.16;4870900;29;20057;-74
2023/11/20 07:02:52;;;;;;;8.23;4.72;;;;;;;6.19;48.02;94887.50;4855053;29;20037;-80
2023/11/20 07:05:18;;;;;;;6.80;4.55;;;;;;;6.32;47.49;94883.84;4855751;29;20050;-74
2023/11/20 07:07:52;;;;;;;6.00;3.72;;;;;;;6.45;47.25;94894.97;4839347;29;20029;-74
2023/11/20 07:10:23;;;;;;;6.47;3.95;;;;;;;6.64;46.84;94893.53;4845106;29;20092;-74
2023/11/20 07:12:55;;;;;;;5.70;3.38;;;;;;;6.70;46.88;94904.75;4855700;29;20025;-73
2023/11/20 07:15:21;;;;;;;7.43;4.10;;;;;;;6.78;46.82;94907.00;4837942;29;20035;-74
2023/11/20 07:17:47;;;;;;;10.02;5.05;;;;;;;6.94;46.78;94911.84;4849544;29;20170;-73
2023/11/20 07:20:13;;;;;;;7.32;4.50;;;;;;;7.13;46.45;94913.09;4878508;29;20112;-74
2023/11/20 07:22:38;;;;;;;8.40;4.65;;;;;;;7.27;45.93;94901.94;4859091;29;20036;-74
2023/11/20 07:25:04;;;;;;;7.80;4.80;;;;;;;7.55;45.25;94892.47;4852133;29;20118;-73
2023/11/20 07:27:33;;;;;;;9.80;4.30;;;;;;;7.84;44.74;94892.72;4842548;29;20429;-73
2023/11/20 07:29:58;;;;;;;9.93;4.70;;;;;;;8.22;43.92;94893.13;4859034;29;20142;-73
2023/11/20 07:32:23;;;;;;;7.40;4.13;;;;;;;8.34;43.48;94885.47;4851793;29;20507;-73
2023/11/20 07:34:49;;;;;;;7.32;4.15;;;;;;;8.37;43.51;94884.66;4874038;29;20040;-73
2023/11/20 07:37:16;;;;;;;7.07;4.07;;;;;;;8.53;42.83;94881.94;4858450;29;20448;-73
2023/11/20 07:39:42;;;;;;;8.77;3.85;;;;;;;9.31;41.82;94890.34;4859375;29;20028;-73
2023/11/20 07:42:08;;;;;;;7.25;3.90;;;;;;;10.09;40.12;94882.03;4858165;29;20027;-74
2023/11/20 07:44:34;;;;;;;7.95;3.63;;;;;;;10.89;39.10;94869.09;4859011;29;20047;-74
2023/11/20 07:47:00;;;;;;;5.38;3.17;;;;;;;12.15;36.20;94865.72;4875011;29;20480;-74
2023/11/20 07:49:26;;;;;;;6.05;3.88;;;;;;;13.75;33.49;94867.75;4875459;29;20040;-75
2023/11/20 07:51:53;;;;;;;7.18;4.35;;;;;;;15.18;31.72;94861.38;4875127;29;20122;-73
2023/11/20 07:54:18;;;;;;;12.50;3.75;;;;;;;16.49;29.53;94860.81;4875108;29;20222;-73
2023/11/20 07:56:44;;;;;;;6.75;3.67;;;;;;;17.50;27.75;94861.19;4858443;29;20136;-73
2023/11/20 07:59:09;;;;;;;6.57;3.72;;;;;;;18.47;26.43;94861.13;4857899;29;20108;-74
2023/11/20 08:01:36;;;;;;;10.00;3.53;;;;;;;19.26;25.22;94862.59;4858503;29;20499;-73
2023/11/20 08:04:04;;;;;;;6.15;3.08;;;;;;;20.19;24.45;94854.53;4857629;29;20072;-74
2023/11/20 08:06:31;;;;;;;5.25;3.03;;;;;;;21.21;23.40;94847.81;4875189;29;20067;-73
2023/11/20 08:08:56;;;;;;;7.15;3.28;;;;;;;21.89;22.57;94854.09;4874507;29;20092;-73
2023/11/20 08:11:22;;;;;;;5.75;3.47;;;;;;;22.30;21.85;94857.00;4842295;29;20034;-73
2023/11/20 08:13:47;;;;;;;6.78;2.78;;;;;;;22.50;21.21;94844.69;4874959;29;20283;-73
2023/11/20 08:16:13;;;;;;;5.95;3.25;;;;;;;22.17;21.75;94859.63;4874304;29;20492;-73
2023/11/20 08:18:38;;;;;;;4.47;2.83;;;;;;;22.33;21.49;94847.59;4858234;29;20033;-73
2023/11/20 08:21:04;;;;;;;8.52;3.45;;;;;;;22.44;21.99;94850.34;4842059;29;20036;-74
2023/11/20 08:23:29;;;;;;;9.25;4.05;;;;;;;22.98;21.01;94849.75;4842788;29;20032;-74
2023/11/20 08:25:54;;;;;;;12.52;4.47;;;;;;;23.10;21.25;94852.47;4873856;29;20029;-74
2023/11/20 08:28:20;;;;;;;10.70;3.95;;;;;;;23.33;21.03;94839.78;4857741;29;20412;-74
2023/11/20 08:30:45;;;;;;;3.83;2.28;;;;;;;23.33;20.49;94834.19;4874416;29;20043;-74
2023/11/20 08:33:11;;;;;;;7.43;2.90;;;;;;;23.35;20.61;94831.63;4857329;29;20133;-73
2023/11/20 08:35:36;;;;;;;7.63;2.53;;;;;;;23.89;20.02;94833.66;4874762;29;20106;-74
2023/11/20 08:38:01;;;;;;;5.93;2.50;;;;;;;24.18;19.87;94822.84;4857412;29;20029;-73
2023/11/20 08:40:27;;;;;;;10.27;3.72;;;;;;;24.95;18.89;94828.72;4857231;29;20044;-74
2023/11/20 08:42:52;;;;;;;7.90;3.50;;;;;;;25.57;18.66;94828.44;4874011;29;20124;-73
2023/11/20 08:45:18;;;;;;;5.93;2.90;;;;;;;26.23;17.94;94830.56;4874345;29;20033;-73
2023/11/20 08:47:44;;;;;;;9.73;2.92;;;;;;;26.94;17.32;94825.94;4874320;29;20091;-74
2023/11/20 08:50:11;;;;;;;5.40;2.30;;;;;;;27.78;16.32;94835.97;4857522;29;20029;-74
2023/11/20 08:52:36;;;;;;;7.43;2.65;;;;;;;28.51;16.31;94836.06;4857152;29;20447;-74
2023/11/20 08:55:01;;;;;;;5.28;2.60;;;;;;;28.78;15.86;94833.69;4857073;29;20461;-73
2023/11/20 08:57:27;;;;;;;6.22;2.45;;;;;;;28.91;15.45;94830.72;4874342;29;20341;-73
2023/11/20 08:59:52;;;;;;;6.88;2.35;;;;;;;29.64;15.24;94836.91;4873655;29;20043;-74
2023/11/20 09:02:18;;;;;;;9.23;2.95;;;;;;;30.34;14.77;94839.09;4874146;29;20107;-73
2023/11/20 09:04:43;;;;;;;6.20;2.72;;;;;;;30.85;14.11;94828.72;4873560;29;20025;-73
2023/11/20 09:07:10;;;;;;;4.90;2.60;;;;;;;31.23;14.04;94817.13;4857254;29;20036;-73
2023/11/20 09:09:35;;;;;;;5.55;3.17;;;;;;;31.83;13.87;94820.13;4856940;29;20047;-74
2023/11/20 09:12:02;;;;;;;10.75;3.35;;;;;;;32.31;13.20;94825.53;4873556;29;20116;-73
2023/11/20 09:14:28;;;;;;;6.13;3.08;;;;;;;32.60;12.43;94814.44;4857075;29;20029;-74
2023/11/20 09:16:53;;;;;;;5.95;3.58;;;;;;;32.76;12.39;94816.50;4873376;29;20044;-74
2023/11/20 09:19:19;;;;;;;6.95;2.50;;;;;;;33.22;12.03;94810.22;4856972;29;20033;-74
2023/11/20 09:21:44;;;;;;;7.95;2.03;;;;;;;33.48;11.86;94805.84;4856468;29;20049;-74
2023/11/20 09:24:10;;;;;;;3.35;2.00;;;;;;;34.13;12.06;94806.50;4873709;29;20492;-74
2023/11/20 09:26:36;;;;;;;4.53;2.05;;;;;;;32.92;12.50;94807.78;4855950;29;20029;-75
2023/11/20 09:29:02;;;;;;;6.95;2.35;;;;;;;32.10;12.89;94803.94;4841520;29;20039;-73
2023/11/20 09:31:28;;;;;;;7.30;2.17;;;;;;;30.69;14.14;94796.84;4856420;29;20037;-73
2023/11/20 09:33:53;;;;;;;6.45;2.75;;;;;;;29.72;14.74;94792.34;4856468;29;20451;-74
2023/11/20 09:36:19;;;;;;;8.60;3.47;;;;;;;29.32;15.10;94795.72;4856671;29;20027;-73
2023/11/20 09:38:45;;;;;;;5.43;2.63;;;;;;;29.32;15.59;94777.97;4856239;29;20040;-74
2023/11/20 09:41:11;;;;;;;5.15;1.85;;;;;;;29.69;15.29;94776.47;4873591;29;20089;-74
2023/11/20 09:43:37;;;;;;;5.95;1.92;;;;;;;30.66;14.62;94778.09;4855985;29;20531;-74
2023/11/20 09:46:10;;;;;;;4.72;1.60;;;;;;;29.86;15.12;94779.47;4856651;29;20026;-74
2023/11/20 09:48:38;;;;;;;3.28;1.83;;;;;;;28.82;15.74;94764.13;4855895;29;20120;-75
2023/11/20 09:51:05;;;;;;;1.40;0.90;;;;;;;27.61;16.74;94767.88;4856305;29;20061;-73
2023/11/20 09:53:36;;;;;;;2.35;0.85;;;;;;;26.86;17.44;94763.84;4855680;29;20053;-74
2023/11/20 09:56:03;;;;;;;2.20;0.60;;;;;;;25.92;18.20;94761.78;4856139;29;20053;-74
2023/11/20 09:58:36;;;;;;;2.85;0.82;;;;;;;25.01;19.16;94767.50;4856428;29;20029;-73
2023/11/20 10:01:10;;;;;;;3.45;0.80;;;;;;;23.74;20.33;94771.56;4855864;29;20037;-73
2023/11/20 10:03:40;;;;;;;2.50;1.02;;;;;;;23.24;20.56;94772.84;4856056;29;20052;-74
2023/11/20 10:06:07;;;;;;;3.03;1.25;;;;;;;22.69;21.25;94780.41;4872824;29;20778;-74
2023/11/20 10:08:36;;;;;;;2.10;1.30;;;;;;;21.83;22.08;94766.59;4840161;29;20048;-74
2023/11/20 10:11:02;;;;;;;2.13;1.20;;;;;;;21.12;23.01;94772.63;4873022;29;20033;-74
2023/11/20 10:13:28;;;;;;;2.03;1.25;;;;;;;20.76;23.55;94772.41;4855466;29;20104;-74
2023/11/20 10:15:54;;;;;;;2.85;1.60;;;;;;;20.29;24.19;94768.50;4856393;29;20484;-74
2023/11/20 10:18:20;;;;;;;7.10;1.60;;;;;;;20.06;24.41;94771.25;4855675;29;20024;-74
2023/11/20 10:20:50;;;;;;;3.85;1.60;;;;;;;19.63;25.12;94749.06;4855626;29;20037;-74
2023/11/20 10:23:20;;;;;;;3.40;1.95;;;;;;;19.28;25.86;94754.19;4855550;29;20041;-74
2023/11/20 10:25:47;;;;;;;6.25;1.70;;;;;;;19.16;25.56;94763.75;4854964;29;20048;-74
2023/11/20 10:28:15;;;;;;;2.55;1.23;;;;;;;18.86;26.31;94752.13;4856237;29;20101;-73
2023/11/20 10:30:45;;;;;;;4.90;1.65;;;;;;;18.71;26.45;94766.22;4855033;29;20423;-73
2023/11/20 10:33:20;;;;;;;3.05;1.00;;;;;;;18.40;26.81;94761.34;4873027;29;20119;-74
2023/11/20 10:35:48;;;;;;;3.40;1.70;;;;;;;18.28;26.85;94757.72;4871858;29;20029;-73
2023/11/20 10:38:14;;;;;;;2.80;1.33;;;;;;;18.13;27.28;94762.63;4840190;29;20033;-73
2023/11/20 10:40:50;;;;;;;2.22;1.10;;;;;;;17.91;27.13;94758.38;4855265;29;20040;-73
2023/11/20 10:43:16;;;;;;;3.15;1.00;;;;;;;17.74;26.88;94758.19;4841185;29;20154;-74
2023/11/20 10:45:41;;;;;;;2.25;0.80;;;;;;;17.60;26.81;94761.75;4855752;29;20134;-75
2023/11/20 10:48:07;;;;;;;1.98;0.90;;;;;;;17.52;26.96;94769.75;4855172;29;20029;-76
2023/11/20 10:50:35;;;;;;;3.28;1.30;;;;;;;17.86;26.51;94777.75;4855361;29;20536;-74
2023/11/20 10:53:07;;;;;;;3.00;1.40;;;;;;;17.63;26.74;94766.34;4855276;29;20033;-74
2023/11/20 10:55:43;;;;;;;4.60;1.42;;;;;;;17.39;26.94;94769.34;4855462;29;20049;-73
2023/11/20 10:58:10;;;;;;;2.90;1.50;;;;;;;17.07;27.59;94778.75;4872089;29;20491;-73
2023/11/20 11:00:36;;;;;;;3.47;1.45;;;;;;;16.81;27.62;94767.50;4839205;29;20033;-75
2023/11/20 11:03:04;;;;;;;2.60;1.33;;;;;;;16.53;28.01;94761.50;4855605;29;20102;-75
2023/11/20 11:05:29;;;;;;;2.38;1.17;;;;;;;16.25;28.71;94761.78;4854907;29;20112;-73
2023/11/20 11:07:57;;;;;;;2.53;1.80;;;;;;;16.09;28.83;94773.34;4855232;29;20489;-73
2023/11/20 11:10:23;;;;;;;7.43;2.40;;;;;;;15.83;29.02;94754.50;4854985;29;20044;-74
2023/11/20 11:12:49;;;;;;;4.72;3.00;;;;;;;15.66;29.62;94765.25;4855009;29;20024;-74
2023/11/20 11:15:15;;;;;;;4.32;1.88;;;;;;;15.37;29.75;94765.16;4855224;29;20410;-74
2023/11/20 11:18:06;;;;;;;4.90;2.35;;;;;;;15.22;30.25;94764.31;4854608;29;20039;-74
2023/11/20 11:20:54;;;;;;;5.72;2.00;;;;;;;14.96;32.00;94764.00;4855470;29;20032;-74
2023/11/20 11:23:40;;;;;;;5.60;3.25;;;;;;;14.80;33.41;94774.22;4854829;29;20029;-74
2023/11/20 11:26:17;;;;;;;4.13;2.00;;;;;;;14.65;34.02;94769.84;4854256;29;20117;-74
2023/11/20 11:28:46;;;;;;;4.60;2.42;;;;;;;14.63;34.31;94764.78;4855055;29;20037;-74
2023/11/20 11:31:12;;;;;;;3.22;2.00;;;;;;;14.56;34.05;94762.31;4854654;29;20056;-74
2023/11/20 11:34:11;;;;;;;4.22;2.30;;;;;;;14.46;34.85;94780.19;4855412;29;20484;-74